Cristianopolis, Brazil
Current Conditions -  °F | °C
As of 11:00 AM on Thursday 18 Dec 2014 (Local Time) from SBGO Reporting Station
Few Clouds Few Clouds  
Wind Chill: 81°   Ceiling: Unl
Heat Index: 82°   Visibility: 6mi
Dew Point: 64°   Wind: 3mph
Humidity: 58%   Direction: 310°NW
Pressure: 29.97"   Gusts: NA
Location:  17.2°S, 48.71°W
Report Text: SBGO 181300Z 31003KT 9999 FEW035 27/18 Q1015
Loading
Personal Weather Stations






























Interactive Weather Map New forecast layout! Learn more

10-Day Weather Forecast

Advertisements
Track Severe Weather on mobile